Terminal Aerodrome Forecast
Issued by NWS Charleston, WV

Current Version | Previous Version | Graphics & Text | Print | Product List | Glossary On
Versions: 1 2 3 4 5 6 7 8 9 10 11 12 13 14 15 16 17 18 19 20 21 22
000
FTUS41 KRLX 291700
TAFBKW
TAF
KBKW 291738Z 2918/3018 30007KT P6SM SCT030 BKN035
     FM292300 34006KT P6SM SCT035
     FM300200 00000KT P6SM SCT025
     FM301400 VRB03KT P6SM BKN015
     FM301600 30005KT P6SM BKN025=

USA.gov is the U.S. government's official web portal to all federal, state and local government web resources and services.